sensor_id;sensor_type;location;lat;lon;timestamp;P1;durP1;ratioP1;P2;durP2;ratioP2
15230;SDS011;32569;51.762;8.564;2023-02-14T00:01:13;20.70;;;13.43;;
15230;SDS011;32569;51.762;8.564;2023-02-14T00:03:42;15.07;;;12.73;;
15230;SDS011;32569;51.762;8.564;2023-02-14T00:06:09;15.97;;;13.37;;
15230;SDS011;32569;51.762;8.564;2023-02-14T00:08:40;17.93;;;13.73;;
15230;SDS011;32569;51.762;8.564;2023-02-14T00:11:09;16.83;;;13.40;;
15230;SDS011;32569;51.762;8.564;2023-02-14T00:13:36;16.57;;;13.17;;
15230;SDS011;32569;51.762;8.564;2023-02-14T00:16:02;14.73;;;12.53;;
15230;SDS011;32569;51.762;8.564;2023-02-14T00:18:28;16.50;;;12.80;;
15230;SDS011;32569;51.762;8.564;2023-02-14T00:21:10;16.03;;;13.40;;
15230;SDS011;32569;51.762;8.564;2023-02-14T00:23:37;14.40;;;12.57;;
15230;SDS011;32569;51.762;8.564;2023-02-14T00:26:04;16.10;;;12.83;;
15230;SDS011;32569;51.762;8.564;2023-02-14T00:28:30;17.13;;;13.07;;
15230;SDS011;32569;51.762;8.564;2023-02-14T00:30:57;14.67;;;12.03;;
15230;SDS011;32569;51.762;8.564;2023-02-14T00:33:24;17.30;;;11.87;;
15230;SDS011;32569;51.762;8.564;2023-02-14T00:35:51;16.97;;;12.70;;
15230;SDS011;32569;51.762;8.564;2023-02-14T00:38:19;17.47;;;12.47;;
15230;SDS011;32569;51.762;8.564;2023-02-14T00:40:46;13.40;;;11.47;;
15230;SDS011;32569;51.762;8.564;2023-02-14T00:43:12;15.23;;;11.50;;
15230;SDS011;32569;51.762;8.564;2023-02-14T00:45:39;14.33;;;11.43;;
15230;SDS011;32569;51.762;8.564;2023-02-14T00:48:06;15.13;;;10.57;;
15230;SDS011;32569;51.762;8.564;2023-02-14T00:50:32;12.60;;;10.30;;
15230;SDS011;32569;51.762;8.564;2023-02-14T00:52:59;12.43;;;10.90;;
15230;SDS011;32569;51.762;8.564;2023-02-14T00:55:27;14.77;;;10.67;;
15230;SDS011;32569;51.762;8.564;2023-02-14T00:57:53;13.13;;;10.47;;
15230;SDS011;32569;51.762;8.564;2023-02-14T01:00:21;12.87;;;10.70;;
15230;SDS011;32569;51.762;8.564;2023-02-14T01:02:48;11.73;;;9.97;;
15230;SDS011;32569;51.762;8.564;2023-02-14T01:05:14;12.40;;;10.23;;
15230;SDS011;32569;51.762;8.564;2023-02-14T01:07:41;13.70;;;10.03;;
15230;SDS011;32569;51.762;8.564;2023-02-14T01:10:08;12.67;;;10.07;;
15230;SDS011;32569;51.762;8.564;2023-02-14T01:12:36;14.73;;;10.70;;
15230;SDS011;32569;51.762;8.564;2023-02-14T01:15:03;12.40;;;10.23;;
15230;SDS011;32569;51.762;8.564;2023-02-14T01:17:29;12.73;;;10.03;;
15230;SDS011;32569;51.762;8.564;2023-02-14T01:19:56;13.10;;;10.40;;
15230;SDS011;32569;51.762;8.564;2023-02-14T01:22:23;13.47;;;10.70;;
15230;SDS011;32569;51.762;8.564;2023-02-14T01:24:49;14.73;;;10.57;;
15230;SDS011;32569;51.762;8.564;2023-02-14T01:27:16;13.13;;;11.23;;
15230;SDS011;32569;51.762;8.564;2023-02-14T01:29:44;10.50;;;9.23;;
15230;SDS011;32569;51.762;8.564;2023-02-14T01:32:11;13.83;;;10.73;;
15230;SDS011;32569;51.762;8.564;2023-02-14T01:34:37;13.83;;;9.80;;
15230;SDS011;32569;51.762;8.564;2023-02-14T01:37:04;12.00;;;9.60;;
15230;SDS011;32569;51.762;8.564;2023-02-14T01:39:30;11.20;;;9.70;;
15230;SDS011;32569;51.762;8.564;2023-02-14T01:41:57;14.07;;;9.93;;
15230;SDS011;32569;51.762;8.564;2023-02-14T01:47:22;12.03;;;9.57;;
15230;SDS011;32569;51.762;8.564;2023-02-14T01:49:50;12.80;;;9.67;;
15230;SDS011;32569;51.762;8.564;2023-02-14T01:52:21;10.13;;;8.83;;
15230;SDS011;32569;51.762;8.564;2023-02-14T01:54:53;11.87;;;9.47;;
15230;SDS011;32569;51.762;8.564;2023-02-14T01:57:23;11.80;;;9.50;;
15230;SDS011;32569;51.762;8.564;2023-02-14T01:59:56;12.37;;;9.37;;
15230;SDS011;32569;51.762;8.564;2023-02-14T02:02:45;13.13;;;10.37;;
15230;SDS011;32569;51.762;8.564;2023-02-14T02:05:12;11.43;;;9.20;;
15230;SDS011;32569;51.762;8.564;2023-02-14T02:07:40;10.77;;;9.00;;
15230;SDS011;32569;51.762;8.564;2023-02-14T02:10:07;13.00;;;9.13;;
15230;SDS011;32569;51.762;8.564;2023-02-14T02:12:34;11.80;;;9.33;;
15230;SDS011;32569;51.762;8.564;2023-02-14T02:15:05;10.90;;;9.30;;
15230;SDS011;32569;51.762;8.564;2023-02-14T02:17:35;10.70;;;8.77;;
15230;SDS011;32569;51.762;8.564;2023-02-14T02:20:26;11.80;;;9.13;;
15230;SDS011;32569;51.762;8.564;2023-02-14T02:23:12;11.87;;;9.43;;
15230;SDS011;32569;51.762;8.564;2023-02-14T02:26:12;12.27;;;9.20;;
15230;SDS011;32569;51.762;8.564;2023-02-14T02:29:10;9.60;;;8.17;;
15230;SDS011;32569;51.762;8.564;2023-02-14T02:32:02;11.10;;;8.73;;
15230;SDS011;32569;51.762;8.564;2023-02-14T02:34:58;12.33;;;10.00;;
15230;SDS011;32569;51.762;8.564;2023-02-14T02:37:37;11.60;;;8.67;;
15230;SDS011;32569;51.762;8.564;2023-02-14T02:40:15;11.70;;;10.00;;
15230;SDS011;32569;51.762;8.564;2023-02-14T02:42:51;12.03;;;9.23;;
15230;SDS011;32569;51.762;8.564;2023-02-14T02:45:31;11.10;;;8.80;;
15230;SDS011;32569;51.762;8.564;2023-02-14T02:48:28;11.57;;;9.30;;
15230;SDS011;32569;51.762;8.564;2023-02-14T02:51:03;11.73;;;9.13;;
15230;SDS011;32569;51.762;8.564;2023-02-14T02:53:53;9.80;;;8.80;;
15230;SDS011;32569;51.762;8.564;2023-02-14T02:56:24;12.07;;;9.37;;
15230;SDS011;32569;51.762;8.564;2023-02-14T02:59:14;9.77;;;8.73;;
15230;SDS011;32569;51.762;8.564;2023-02-14T03:01:46;11.03;;;8.73;;
15230;SDS011;32569;51.762;8.564;2023-02-14T03:04:16;11.70;;;9.23;;
15230;SDS011;32569;51.762;8.564;2023-02-14T03:07:05;10.77;;;8.87;;
15230;SDS011;32569;51.762;8.564;2023-02-14T03:09:50;13.53;;;9.10;;
15230;SDS011;32569;51.762;8.564;2023-02-14T03:12:21;11.43;;;9.00;;
15230;SDS011;32569;51.762;8.564;2023-02-14T03:15:16;12.33;;;8.87;;
15230;SDS011;32569;51.762;8.564;2023-02-14T03:17:50;11.43;;;9.27;;
15230;SDS011;32569;51.762;8.564;2023-02-14T03:20:27;11.13;;;8.63;;
15230;SDS011;32569;51.762;8.564;2023-02-14T03:23:01;13.63;;;9.07;;
15230;SDS011;32569;51.762;8.564;2023-02-14T03:25:36;14.13;;;9.57;;
15230;SDS011;32569;51.762;8.564;2023-02-14T03:28:09;14.07;;;10.10;;
15230;SDS011;32569;51.762;8.564;2023-02-14T03:30:42;10.87;;;8.43;;
15230;SDS011;32569;51.762;8.564;2023-02-14T03:33:15;12.27;;;8.97;;
15230;SDS011;32569;51.762;8.564;2023-02-14T03:35:47;12.10;;;9.60;;
15230;SDS011;32569;51.762;8.564;2023-02-14T03:38:21;10.40;;;8.37;;
15230;SDS011;32569;51.762;8.564;2023-02-14T03:40:50;9.87;;;8.10;;
15230;SDS011;32569;51.762;8.564;2023-02-14T03:43:23;9.87;;;7.80;;
15230;SDS011;32569;51.762;8.564;2023-02-14T03:45:53;11.70;;;8.50;;
15230;SDS011;32569;51.762;8.564;2023-02-14T03:48:25;9.97;;;8.13;;
15230;SDS011;32569;51.762;8.564;2023-02-14T03:50:53;10.23;;;8.30;;
15230;SDS011;32569;51.762;8.564;2023-02-14T03:53:25;11.17;;;8.53;;
15230;SDS011;32569;51.762;8.564;2023-02-14T03:55:57;12.93;;;8.90;;
15230;SDS011;32569;51.762;8.564;2023-02-14T03:58:28;11.10;;;8.47;;
15230;SDS011;32569;51.762;8.564;2023-02-14T04:00:59;10.33;;;8.40;;
15230;SDS011;32569;51.762;8.564;2023-02-14T04:03:29;12.87;;;8.53;;
15230;SDS011;32569;51.762;8.564;2023-02-14T04:05:57;10.80;;;8.50;;
15230;SDS011;32569;51.762;8.564;2023-02-14T04:08:26;10.20;;;8.30;;
15230;SDS011;32569;51.762;8.564;2023-02-14T04:10:55;11.07;;;8.57;;
15230;SDS011;32569;51.762;8.564;2023-02-14T04:13:25;11.67;;;8.63;;
15230;SDS011;32569;51.762;8.564;2023-02-14T04:15:51;14.13;;;9.37;;
15230;SDS011;32569;51.762;8.564;2023-02-14T04:18:18;11.47;;;9.10;;
15230;SDS011;32569;51.762;8.564;2023-02-14T04:21:06;10.27;;;8.10;;
15230;SDS011;32569;51.762;8.564;2023-02-14T04:23:34;13.47;;;9.47;;
15230;SDS011;32569;51.762;8.564;2023-02-14T04:26:01;10.73;;;8.50;;
15230;SDS011;32569;51.762;8.564;2023-02-14T04:28:28;11.27;;;8.83;;
15230;SDS011;32569;51.762;8.564;2023-02-14T04:30:55;11.90;;;9.10;;
15230;SDS011;32569;51.762;8.564;2023-02-14T04:33:22;10.73;;;9.13;;
15230;SDS011;32569;51.762;8.564;2023-02-14T04:35:48;11.77;;;8.80;;
15230;SDS011;32569;51.762;8.564;2023-02-14T04:38:15;13.47;;;9.73;;
15230;SDS011;32569;51.762;8.564;2023-02-14T04:40:43;12.00;;;9.13;;
15230;SDS011;32569;51.762;8.564;2023-02-14T04:43:10;10.37;;;8.90;;
15230;SDS011;32569;51.762;8.564;2023-02-14T04:45:36;10.23;;;8.53;;
15230;SDS011;32569;51.762;8.564;2023-02-14T04:48:03;10.80;;;9.03;;
15230;SDS011;32569;51.762;8.564;2023-02-14T04:50:29;10.23;;;9.00;;
15230;SDS011;32569;51.762;8.564;2023-02-14T04:52:56;9.30;;;8.20;;
15230;SDS011;32569;51.762;8.564;2023-02-14T04:55:22;11.53;;;9.00;;
15230;SDS011;32569;51.762;8.564;2023-02-14T04:57:50;9.97;;;8.97;;
15230;SDS011;32569;51.762;8.564;2023-02-14T05:00:18;9.80;;;8.00;;
15230;SDS011;32569;51.762;8.564;2023-02-14T05:02:50;9.97;;;8.40;;
15230;SDS011;32569;51.762;8.564;2023-02-14T05:05:17;9.63;;;8.37;;
15230;SDS011;32569;51.762;8.564;2023-02-14T05:07:44;10.13;;;8.33;;
15230;SDS011;32569;51.762;8.564;2023-02-14T05:10:12;10.83;;;9.30;;
15230;SDS011;32569;51.762;8.564;2023-02-14T05:12:39;10.13;;;8.30;;
15230;SDS011;32569;51.762;8.564;2023-02-14T05:15:08;9.63;;;7.83;;
15230;SDS011;32569;51.762;8.564;2023-02-14T05:17:34;9.97;;;8.27;;
15230;SDS011;32569;51.762;8.564;2023-02-14T05:20:01;10.80;;;9.27;;
15230;SDS011;32569;51.762;8.564;2023-02-14T05:22:29;9.30;;;8.30;;
15230;SDS011;32569;51.762;8.564;2023-02-14T05:24:56;9.03;;;7.87;;
15230;SDS011;32569;51.762;8.564;2023-02-14T05:27:23;13.27;;;9.40;;
15230;SDS011;32569;51.762;8.564;2023-02-14T05:29:49;13.70;;;8.87;;
15230;SDS011;32569;51.762;8.564;2023-02-14T05:32:17;12.03;;;9.60;;
15230;SDS011;32569;51.762;8.564;2023-02-14T05:34:44;10.43;;;8.93;;
15230;SDS011;32569;51.762;8.564;2023-02-14T05:37:11;10.10;;;7.90;;
15230;SDS011;32569;51.762;8.564;2023-02-14T05:39:37;13.83;;;10.00;;
15230;SDS011;32569;51.762;8.564;2023-02-14T05:42:04;12.43;;;9.33;;
15230;SDS011;32569;51.762;8.564;2023-02-14T05:44:30;12.00;;;8.77;;
15230;SDS011;32569;51.762;8.564;2023-02-14T05:46:57;12.60;;;9.07;;
15230;SDS011;32569;51.762;8.564;2023-02-14T05:49:25;10.70;;;8.53;;
15230;SDS011;32569;51.762;8.564;2023-02-14T05:51:52;11.87;;;9.50;;
15230;SDS011;32569;51.762;8.564;2023-02-14T05:54:19;10.87;;;8.80;;
15230;SDS011;32569;51.762;8.564;2023-02-14T05:56:45;12.50;;;10.93;;
15230;SDS011;32569;51.762;8.564;2023-02-14T05:59:12;11.27;;;9.87;;
15230;SDS011;32569;51.762;8.564;2023-02-14T06:01:39;11.77;;;9.60;;
15230;SDS011;32569;51.762;8.564;2023-02-14T06:04:05;13.13;;;9.80;;
15230;SDS011;32569;51.762;8.564;2023-02-14T06:06:33;13.63;;;9.77;;
15230;SDS011;32569;51.762;8.564;2023-02-14T06:09:03;9.77;;;8.70;;
15230;SDS011;32569;51.762;8.564;2023-02-14T06:11:29;13.70;;;10.43;;
15230;SDS011;32569;51.762;8.564;2023-02-14T06:13:56;20.13;;;18.03;;
15230;SDS011;32569;51.762;8.564;2023-02-14T06:16:23;23.60;;;21.10;;
15230;SDS011;32569;51.762;8.564;2023-02-14T06:18:50;11.97;;;10.03;;
15230;SDS011;32569;51.762;8.564;2023-02-14T06:21:16;19.80;;;16.47;;
15230;SDS011;32569;51.762;8.564;2023-02-14T06:23:44;19.67;;;15.17;;
15230;SDS011;32569;51.762;8.564;2023-02-14T06:26:11;21.97;;;18.83;;
15230;SDS011;32569;51.762;8.564;2023-02-14T06:28:37;26.67;;;20.83;;
15230;SDS011;32569;51.762;8.564;2023-02-14T06:31:04;16.77;;;12.20;;
15230;SDS011;32569;51.762;8.564;2023-02-14T06:33:31;15.43;;;10.70;;
15230;SDS011;32569;51.762;8.564;2023-02-14T06:35:57;17.73;;;15.83;;
15230;SDS011;32569;51.762;8.564;2023-02-14T06:38:24;13.60;;;9.47;;
15230;SDS011;32569;51.762;8.564;2023-02-14T06:40:52;11.60;;;10.23;;
15230;SDS011;32569;51.762;8.564;2023-02-14T06:43:19;16.97;;;13.17;;
15230;SDS011;32569;51.762;8.564;2023-02-14T06:45:45;17.60;;;12.73;;
15230;SDS011;32569;51.762;8.564;2023-02-14T06:48:12;14.47;;;10.63;;
15230;SDS011;32569;51.762;8.564;2023-02-14T06:50:38;13.97;;;10.07;;
15230;SDS011;32569;51.762;8.564;2023-02-14T06:53:05;14.27;;;11.20;;
15230;SDS011;32569;51.762;8.564;2023-02-14T06:55:32;17.57;;;12.40;;
15230;SDS011;32569;51.762;8.564;2023-02-14T06:58:00;15.47;;;10.90;;
15230;SDS011;32569;51.762;8.564;2023-02-14T07:00:26;14.53;;;10.33;;
15230;SDS011;32569;51.762;8.564;2023-02-14T07:02:53;16.43;;;12.73;;
15230;SDS011;32569;51.762;8.564;2023-02-14T07:05:19;15.03;;;13.07;;
15230;SDS011;32569;51.762;8.564;2023-02-14T07:07:46;16.13;;;11.90;;
15230;SDS011;32569;51.762;8.564;2023-02-14T07:10:14;12.53;;;10.13;;
15230;SDS011;32569;51.762;8.564;2023-02-14T07:12:40;16.47;;;10.00;;
15230;SDS011;32569;51.762;8.564;2023-02-14T07:15:10;14.43;;;11.20;;
15230;SDS011;32569;51.762;8.564;2023-02-14T07:17:39;15.10;;;11.33;;
15230;SDS011;32569;51.762;8.564;2023-02-14T07:20:07;14.63;;;10.53;;
15230;SDS011;32569;51.762;8.564;2023-02-14T07:22:34;14.60;;;9.90;;
15230;SDS011;32569;51.762;8.564;2023-02-14T07:25:01;13.47;;;10.07;;
15230;SDS011;32569;51.762;8.564;2023-02-14T07:27:28;14.50;;;11.47;;
15230;SDS011;32569;51.762;8.564;2023-02-14T07:29:55;16.37;;;11.50;;
15230;SDS011;32569;51.762;8.564;2023-02-14T07:32:23;15.97;;;10.67;;
15230;SDS011;32569;51.762;8.564;2023-02-14T07:34:50;12.93;;;9.70;;
15230;SDS011;32569;51.762;8.564;2023-02-14T07:37:17;13.60;;;10.33;;
15230;SDS011;32569;51.762;8.564;2023-02-14T07:39:43;16.07;;;9.83;;
15230;SDS011;32569;51.762;8.564;2023-02-14T07:42:10;11.30;;;8.97;;
15230;SDS011;32569;51.762;8.564;2023-02-14T07:44:37;13.57;;;10.00;;
15230;SDS011;32569;51.762;8.564;2023-02-14T07:47:04;12.87;;;9.40;;
15230;SDS011;32569;51.762;8.564;2023-02-14T07:49:33;12.87;;;10.23;;
15230;SDS011;32569;51.762;8.564;2023-02-14T07:52:00;15.30;;;9.97;;
15230;SDS011;32569;51.762;8.564;2023-02-14T07:54:27;12.97;;;9.67;;
15230;SDS011;32569;51.762;8.564;2023-02-14T07:56:54;12.60;;;11.17;;
15230;SDS011;32569;51.762;8.564;2023-02-14T07:59:21;12.53;;;9.60;;
15230;SDS011;32569;51.762;8.564;2023-02-14T08:01:47;13.97;;;10.17;;
15230;SDS011;32569;51.762;8.564;2023-02-14T08:04:14;14.17;;;10.63;;
15230;SDS011;32569;51.762;8.564;2023-02-14T08:06:42;13.57;;;9.47;;
15230;SDS011;32569;51.762;8.564;2023-02-14T08:09:09;11.67;;;9.47;;
15230;SDS011;32569;51.762;8.564;2023-02-14T08:11:48;10.50;;;8.47;;
15230;SDS011;32569;51.762;8.564;2023-02-14T08:14:43;10.80;;;9.13;;
15230;SDS011;32569;51.762;8.564;2023-02-14T08:17:10;11.57;;;9.67;;
15230;SDS011;32569;51.762;8.564;2023-02-14T08:19:38;10.70;;;9.33;;
15230;SDS011;32569;51.762;8.564;2023-02-14T08:22:06;11.43;;;9.27;;
15230;SDS011;32569;51.762;8.564;2023-02-14T08:24:33;12.40;;;9.00;;
15230;SDS011;32569;51.762;8.564;2023-02-14T08:27:00;13.80;;;9.10;;
15230;SDS011;32569;51.762;8.564;2023-02-14T08:29:26;10.90;;;8.67;;
15230;SDS011;32569;51.762;8.564;2023-02-14T08:31:53;11.30;;;9.47;;
15230;SDS011;32569;51.762;8.564;2023-02-14T08:34:20;13.70;;;9.80;;
15230;SDS011;32569;51.762;8.564;2023-02-14T08:36:46;12.53;;;8.53;;
15230;SDS011;32569;51.762;8.564;2023-02-14T08:39:14;11.70;;;9.43;;
15230;SDS011;32569;51.762;8.564;2023-02-14T08:41:41;9.93;;;8.23;;
15230;SDS011;32569;51.762;8.564;2023-02-14T08:44:08;12.53;;;9.20;;
15230;SDS011;32569;51.762;8.564;2023-02-14T08:46:34;11.37;;;8.77;;
15230;SDS011;32569;51.762;8.564;2023-02-14T08:49:01;13.43;;;9.87;;
15230;SDS011;32569;51.762;8.564;2023-02-14T08:51:27;11.10;;;9.10;;
15230;SDS011;32569;51.762;8.564;2023-02-14T08:53:54;12.73;;;9.70;;
15230;SDS011;32569;51.762;8.564;2023-02-14T08:56:22;13.10;;;9.70;;
15230;SDS011;32569;51.762;8.564;2023-02-14T08:58:50;14.63;;;9.27;;
15230;SDS011;32569;51.762;8.564;2023-02-14T09:01:18;14.47;;;10.30;;
15230;SDS011;32569;51.762;8.564;2023-02-14T09:03:45;13.60;;;10.33;;
15230;SDS011;32569;51.762;8.564;2023-02-14T09:06:12;16.83;;;10.70;;
15230;SDS011;32569;51.762;8.564;2023-02-14T09:08:41;12.87;;;9.63;;
15230;SDS011;32569;51.762;8.564;2023-02-14T09:11:09;14.20;;;10.37;;
15230;SDS011;32569;51.762;8.564;2023-02-14T09:13:39;13.47;;;10.23;;
15230;SDS011;32569;51.762;8.564;2023-02-14T09:16:06;16.03;;;10.97;;
15230;SDS011;32569;51.762;8.564;2023-02-14T09:18:34;13.90;;;9.70;;
15230;SDS011;32569;51.762;8.564;2023-02-14T09:21:02;13.80;;;10.57;;
15230;SDS011;32569;51.762;8.564;2023-02-14T09:23:32;14.67;;;11.13;;
15230;SDS011;32569;51.762;8.564;2023-02-14T09:25:59;13.30;;;10.23;;
15230;SDS011;32569;51.762;8.564;2023-02-14T09:28:26;11.93;;;9.87;;
15230;SDS011;32569;51.762;8.564;2023-02-14T09:30:54;11.83;;;8.97;;
15230;SDS011;32569;51.762;8.564;2023-02-14T09:33:21;13.23;;;10.30;;
15230;SDS011;32569;51.762;8.564;2023-02-14T09:35:48;11.63;;;9.07;;
15230;SDS011;32569;51.762;8.564;2023-02-14T09:38:32;13.53;;;9.07;;
15230;SDS011;32569;51.762;8.564;2023-02-14T09:41:01;12.30;;;9.17;;
15230;SDS011;32569;51.762;8.564;2023-02-14T09:43:32;11.57;;;8.70;;
15230;SDS011;32569;51.762;8.564;2023-02-14T09:46:08;13.30;;;8.83;;
15230;SDS011;32569;51.762;8.564;2023-02-14T09:48:39;13.30;;;9.50;;
15230;SDS011;32569;51.762;8.564;2023-02-14T09:51:10;10.30;;;8.60;;
15230;SDS011;32569;51.762;8.564;2023-02-14T09:53:40;11.93;;;8.83;;
15230;SDS011;32569;51.762;8.564;2023-02-14T09:56:11;12.60;;;9.57;;
15230;SDS011;32569;51.762;8.564;2023-02-14T09:58:44;10.37;;;8.33;;
15230;SDS011;32569;51.762;8.564;2023-02-14T10:01:21;11.10;;;8.33;;
15230;SDS011;32569;51.762;8.564;2023-02-14T10:03:53;11.07;;;9.17;;
15230;SDS011;32569;51.762;8.564;2023-02-14T10:06:41;11.20;;;7.93;;
15230;SDS011;32569;51.762;8.564;2023-02-14T10:09:15;10.77;;;7.93;;
15230;SDS011;32569;51.762;8.564;2023-02-14T10:11:53;10.33;;;8.03;;
15230;SDS011;32569;51.762;8.564;2023-02-14T10:14:22;9.27;;;6.50;;
15230;SDS011;32569;51.762;8.564;2023-02-14T10:16:55;11.20;;;8.37;;
15230;SDS011;32569;51.762;8.564;2023-02-14T10:19:32;11.77;;;7.57;;
15230;SDS011;32569;51.762;8.564;2023-02-14T10:22:05;10.53;;;8.13;;
15230;SDS011;32569;51.762;8.564;2023-02-14T10:24:37;10.07;;;6.70;;
15230;SDS011;32569;51.762;8.564;2023-02-14T10:27:10;9.63;;;6.40;;
15230;SDS011;32569;51.762;8.564;2023-02-14T10:29:43;17.30;;;7.53;;
15230;SDS011;32569;51.762;8.564;2023-02-14T10:32:12;13.37;;;7.40;;
15230;SDS011;32569;51.762;8.564;2023-02-14T10:34:43;10.53;;;6.10;;
15230;SDS011;32569;51.762;8.564;2023-02-14T10:37:22;7.93;;;4.80;;
15230;SDS011;32569;51.762;8.564;2023-02-14T10:42:48;7.73;;;5.23;;
15230;SDS011;32569;51.762;8.564;2023-02-14T10:45:23;7.00;;;5.07;;
15230;SDS011;32569;51.762;8.564;2023-02-14T10:47:57;4.57;;;4.07;;
15230;SDS011;32569;51.762;8.564;2023-02-14T10:50:36;6.23;;;4.67;;
15230;SDS011;32569;51.762;8.564;2023-02-14T10:53:11;5.50;;;4.27;;
15230;SDS011;32569;51.762;8.564;2023-02-14T10:55:46;4.97;;;4.17;;
15230;SDS011;32569;51.762;8.564;2023-02-14T10:58:18;5.97;;;4.90;;
15230;SDS011;32569;51.762;8.564;2023-02-14T11:00:51;5.80;;;4.50;;
15230;SDS011;32569;51.762;8.564;2023-02-14T11:03:24;5.23;;;4.50;;
15230;SDS011;32569;51.762;8.564;2023-02-14T11:05:52;6.17;;;4.77;;
15230;SDS011;32569;51.762;8.564;2023-02-14T11:08:21;7.10;;;4.70;;
15230;SDS011;32569;51.762;8.564;2023-02-14T11:10:51;6.73;;;4.40;;
15230;SDS011;32569;51.762;8.564;2023-02-14T11:13:29;6.00;;;4.50;;
15230;SDS011;32569;51.762;8.564;2023-02-14T11:15:58;5.17;;;4.37;;
15230;SDS011;32569;51.762;8.564;2023-02-14T11:18:28;5.57;;;4.63;;
15230;SDS011;32569;51.762;8.564;2023-02-14T11:21:00;5.00;;;4.50;;
15230;SDS011;32569;51.762;8.564;2023-02-14T11:23:30;4.73;;;4.20;;
15230;SDS011;32569;51.762;8.564;2023-02-14T11:25:58;6.67;;;5.23;;
15230;SDS011;32569;51.762;8.564;2023-02-14T11:28:26;5.97;;;4.50;;
15230;SDS011;32569;51.762;8.564;2023-02-14T11:30:53;6.73;;;4.90;;
15230;SDS011;32569;51.762;8.564;2023-02-14T11:33:28;5.67;;;4.43;;
15230;SDS011;32569;51.762;8.564;2023-02-14T11:36:04;6.00;;;4.93;;
15230;SDS011;32569;51.762;8.564;2023-02-14T11:38:35;5.90;;;4.53;;
15230;SDS011;32569;51.762;8.564;2023-02-14T11:41:05;7.37;;;5.00;;
15230;SDS011;32569;51.762;8.564;2023-02-14T11:43:34;7.60;;;5.70;;
15230;SDS011;32569;51.762;8.564;2023-02-14T11:46:06;7.20;;;5.60;;
15230;SDS011;32569;51.762;8.564;2023-02-14T11:48:40;7.77;;;6.10;;
15230;SDS011;32569;51.762;8.564;2023-02-14T11:51:24;7.80;;;6.13;;
15230;SDS011;32569;51.762;8.564;2023-02-14T11:53:56;10.70;;;6.60;;
15230;SDS011;32569;51.762;8.564;2023-02-14T11:56:41;6.37;;;5.50;;
15230;SDS011;32569;51.762;8.564;2023-02-14T11:59:11;6.90;;;5.63;;
15230;SDS011;32569;51.762;8.564;2023-02-14T12:01:45;7.67;;;6.00;;
15230;SDS011;32569;51.762;8.564;2023-02-14T12:04:14;7.70;;;5.60;;
15230;SDS011;32569;51.762;8.564;2023-02-14T12:06:45;10.83;;;6.03;;
15230;SDS011;32569;51.762;8.564;2023-02-14T12:09:12;22.07;;;8.10;;
15230;SDS011;32569;51.762;8.564;2023-02-14T12:11:52;6.27;;;5.03;;
15230;SDS011;32569;51.762;8.564;2023-02-14T12:14:21;5.73;;;4.87;;
15230;SDS011;32569;51.762;8.564;2023-02-14T12:16:51;6.53;;;3.80;;
15230;SDS011;32569;51.762;8.564;2023-02-14T12:19:26;4.03;;;3.63;;
15230;SDS011;32569;51.762;8.564;2023-02-14T12:22:00;5.23;;;4.47;;
15230;SDS011;32569;51.762;8.564;2023-02-14T12:24:29;4.60;;;4.10;;
15230;SDS011;32569;51.762;8.564;2023-02-14T12:27:04;5.13;;;4.60;;
15230;SDS011;32569;51.762;8.564;2023-02-14T12:29:41;4.60;;;4.20;;
15230;SDS011;32569;51.762;8.564;2023-02-14T12:32:14;6.03;;;5.07;;
15230;SDS011;32569;51.762;8.564;2023-02-14T12:34:46;4.93;;;4.30;;
15230;SDS011;32569;51.762;8.564;2023-02-14T12:37:16;5.83;;;4.57;;
15230;SDS011;32569;51.762;8.564;2023-02-14T12:39:59;6.13;;;4.73;;
15230;SDS011;32569;51.762;8.564;2023-02-14T12:42:41;5.93;;;4.77;;
15230;SDS011;32569;51.762;8.564;2023-02-14T12:45:31;6.33;;;4.07;;
15230;SDS011;32569;51.762;8.564;2023-02-14T12:48:15;5.53;;;4.33;;
15230;SDS011;32569;51.762;8.564;2023-02-14T12:50:53;5.60;;;4.60;;
15230;SDS011;32569;51.762;8.564;2023-02-14T12:53:38;6.17;;;4.60;;
15230;SDS011;32569;51.762;8.564;2023-02-14T12:56:17;5.50;;;4.53;;
15230;SDS011;32569;51.762;8.564;2023-02-14T12:58:55;4.40;;;3.77;;
15230;SDS011;32569;51.762;8.564;2023-02-14T13:01:34;5.43;;;4.30;;
15230;SDS011;32569;51.762;8.564;2023-02-14T13:07:28;5.63;;;4.80;;
15230;SDS011;32569;51.762;8.564;2023-02-14T13:10:09;4.80;;;3.97;;
15230;SDS011;32569;51.762;8.564;2023-02-14T13:12:45;4.50;;;4.10;;
15230;SDS011;32569;51.762;8.564;2023-02-14T13:15:19;4.70;;;4.00;;
15230;SDS011;32569;51.762;8.564;2023-02-14T13:17:54;4.77;;;4.20;;
15230;SDS011;32569;51.762;8.564;2023-02-14T13:20:33;5.57;;;3.70;;
15230;SDS011;32569;51.762;8.564;2023-02-14T13:23:08;5.23;;;4.10;;
15230;SDS011;32569;51.762;8.564;2023-02-14T13:25:40;4.70;;;4.20;;
15230;SDS011;32569;51.762;8.564;2023-02-14T13:28:13;4.57;;;3.93;;
15230;SDS011;32569;51.762;8.564;2023-02-14T13:30:41;5.93;;;4.43;;
15230;SDS011;32569;51.762;8.564;2023-02-14T13:33:22;6.47;;;5.27;;
15230;SDS011;32569;51.762;8.564;2023-02-14T13:35:51;7.50;;;4.87;;
15230;SDS011;32569;51.762;8.564;2023-02-14T13:38:23;5.73;;;4.30;;
15230;SDS011;32569;51.762;8.564;2023-02-14T13:40:51;6.67;;;5.37;;
15230;SDS011;32569;51.762;8.564;2023-02-14T13:46:15;7.10;;;5.20;;
15230;SDS011;32569;51.762;8.564;2023-02-14T13:48:54;6.87;;;5.07;;
15230;SDS011;32569;51.762;8.564;2023-02-14T13:51:44;6.37;;;5.60;;
15230;SDS011;32569;51.762;8.564;2023-02-14T13:54:20;5.30;;;4.80;;
15230;SDS011;32569;51.762;8.564;2023-02-14T13:56:54;5.17;;;4.67;;
15230;SDS011;32569;51.762;8.564;2023-02-14T13:59:25;6.93;;;5.50;;
15230;SDS011;32569;51.762;8.564;2023-02-14T14:01:53;6.33;;;5.20;;
15230;SDS011;32569;51.762;8.564;2023-02-14T14:04:33;6.30;;;5.63;;
15230;SDS011;32569;51.762;8.564;2023-02-14T14:07:14;6.67;;;5.97;;
15230;SDS011;32569;51.762;8.564;2023-02-14T14:09:54;7.03;;;5.63;;
15230;SDS011;32569;51.762;8.564;2023-02-14T14:12:38;6.20;;;5.03;;
15230;SDS011;32569;51.762;8.564;2023-02-14T14:20:56;6.57;;;4.77;;
15230;SDS011;32569;51.762;8.564;2023-02-14T14:23:33;6.10;;;5.10;;
15230;SDS011;32569;51.762;8.564;2023-02-14T14:26:03;7.20;;;6.00;;
15230;SDS011;32569;51.762;8.564;2023-02-14T14:28:55;7.20;;;5.10;;
15230;SDS011;32569;51.762;8.564;2023-02-14T14:31:22;5.93;;;5.30;;
15230;SDS011;32569;51.762;8.564;2023-02-14T14:33:55;5.53;;;5.00;;
15230;SDS011;32569;51.762;8.564;2023-02-14T14:36:23;6.83;;;5.67;;
15230;SDS011;32569;51.762;8.564;2023-02-14T14:38:51;5.73;;;5.00;;
15230;SDS011;32569;51.762;8.564;2023-02-14T14:41:19;8.67;;;6.23;;
15230;SDS011;32569;51.762;8.564;2023-02-14T14:43:53;10.43;;;5.63;;
15230;SDS011;32569;51.762;8.564;2023-02-14T14:46:20;7.00;;;5.77;;
15230;SDS011;32569;51.762;8.564;2023-02-14T14:48:48;7.70;;;6.03;;
15230;SDS011;32569;51.762;8.564;2023-02-14T14:51:21;7.57;;;6.03;;
15230;SDS011;32569;51.762;8.564;2023-02-14T14:53:50;7.10;;;5.90;;
15230;SDS011;32569;51.762;8.564;2023-02-14T14:56:21;8.20;;;6.80;;
15230;SDS011;32569;51.762;8.564;2023-02-14T14:58:50;6.50;;;5.87;;
15230;SDS011;32569;51.762;8.564;2023-02-14T15:01:28;8.80;;;6.50;;
15230;SDS011;32569;51.762;8.564;2023-02-14T15:04:06;8.10;;;5.93;;
15230;SDS011;32569;51.762;8.564;2023-02-14T15:06:34;8.90;;;5.87;;
15230;SDS011;32569;51.762;8.564;2023-02-14T15:09:09;7.37;;;6.10;;
15230;SDS011;32569;51.762;8.564;2023-02-14T15:11:38;9.27;;;6.23;;
15230;SDS011;32569;51.762;8.564;2023-02-14T15:14:23;5.87;;;5.27;;
15230;SDS011;32569;51.762;8.564;2023-02-14T15:16:53;5.80;;;5.07;;